Apple Valley, North Dakota
Current Conditions -  °F | °C
As of 8:52 PM on Friday 21 Nov 2014 (Local Time) from KBIS Reporting Station
Clear Clear  
Wind Chill: 32°   Ceiling: Unl
Heat Index: 37°   Visibility: 10mi
Dew Point: 29°   Wind: 6mph
Humidity: 73%   Direction: 250°WSW
Pressure: 29.71"   Gusts: NA
Location:  46.8954°N, 100.519°W
Report Text: KBIS 220252Z AUTO 25005KT 10SM CLR 03/M02 A2971 RMK AO2 SLP083 T00281017 53005
Loading
Personal Weather Stations






























Interactive Weather Map New forecast layout! Learn more

10-Day Weather Forecast

Advertisements
Track Severe Weather on mobile